sensor_id;sensor_type;location;lat;lon;timestamp;P1;durP1;ratioP1;P2;durP2;ratioP2
9304;SDS011;4690;52.422;13.486;2023-04-12T00:04:21;5.10;;;3.00;;
9304;SDS011;4690;52.422;13.486;2023-04-12T00:06:52;5.27;;;2.90;;
9304;SDS011;4690;52.422;13.486;2023-04-12T00:09:19;4.53;;;3.10;;
9304;SDS011;4690;52.422;13.486;2023-04-12T00:11:44;3.57;;;2.90;;
9304;SDS011;4690;52.422;13.486;2023-04-12T00:14:10;5.70;;;3.47;;
9304;SDS011;4690;52.422;13.486;2023-04-12T00:16:37;3.83;;;2.80;;
9304;SDS011;4690;52.422;13.486;2023-04-12T00:19:03;4.67;;;3.57;;
9304;SDS011;4690;52.422;13.486;2023-04-12T00:21:30;4.30;;;2.90;;
9304;SDS011;4690;52.422;13.486;2023-04-12T00:23:56;3.53;;;2.67;;
9304;SDS011;4690;52.422;13.486;2023-04-12T00:26:22;3.73;;;2.70;;
9304;SDS011;4690;52.422;13.486;2023-04-12T00:28:49;4.57;;;2.73;;
9304;SDS011;4690;52.422;13.486;2023-04-12T00:31:15;4.23;;;3.10;;
9304;SDS011;4690;52.422;13.486;2023-04-12T00:33:41;3.63;;;2.77;;
9304;SDS011;4690;52.422;13.486;2023-04-12T00:36:06;4.67;;;2.83;;
9304;SDS011;4690;52.422;13.486;2023-04-12T00:38:33;4.90;;;3.50;;
9304;SDS011;4690;52.422;13.486;2023-04-12T00:40:59;5.13;;;3.30;;
9304;SDS011;4690;52.422;13.486;2023-04-12T00:43:25;4.10;;;2.67;;
9304;SDS011;4690;52.422;13.486;2023-04-12T00:45:51;4.13;;;2.70;;
9304;SDS011;4690;52.422;13.486;2023-04-12T00:48:21;3.90;;;3.07;;
9304;SDS011;4690;52.422;13.486;2023-04-12T00:50:48;4.27;;;2.90;;
9304;SDS011;4690;52.422;13.486;2023-04-12T00:53:15;4.70;;;3.30;;
9304;SDS011;4690;52.422;13.486;2023-04-12T00:55:43;4.87;;;2.83;;
9304;SDS011;4690;52.422;13.486;2023-04-12T00:58:10;3.93;;;2.50;;
9304;SDS011;4690;52.422;13.486;2023-04-12T01:00:37;4.97;;;3.17;;
9304;SDS011;4690;52.422;13.486;2023-04-12T01:03:03;4.60;;;3.20;;
9304;SDS011;4690;52.422;13.486;2023-04-12T01:05:29;4.83;;;3.23;;
9304;SDS011;4690;52.422;13.486;2023-04-12T01:08:18;5.10;;;3.40;;
9304;SDS011;4690;52.422;13.486;2023-04-12T01:19:32;8.37;;;5.67;;
9304;SDS011;4690;52.422;13.486;2023-04-12T01:25:35;7.77;;;5.60;;
9304;SDS011;4690;52.422;13.486;2023-04-12T01:27:58;6.17;;;5.20;;
9304;SDS011;4690;52.422;13.486;2023-04-12T01:30:28;6.80;;;4.90;;
9304;SDS011;4690;52.422;13.486;2023-04-12T01:32:57;7.87;;;4.70;;
9304;SDS011;4690;52.422;13.486;2023-04-12T01:35:29;5.80;;;4.37;;
9304;SDS011;4690;52.422;13.486;2023-04-12T01:37:57;5.00;;;3.97;;
9304;SDS011;4690;52.422;13.486;2023-04-12T01:40:26;6.27;;;4.00;;
9304;SDS011;4690;52.422;13.486;2023-04-12T01:45:36;4.87;;;3.73;;
9304;SDS011;4690;52.422;13.486;2023-04-12T01:48:09;4.33;;;3.60;;
9304;SDS011;4690;52.422;13.486;2023-04-12T01:53:27;3.80;;;3.47;;
9304;SDS011;4690;52.422;13.486;2023-04-12T01:56:21;4.47;;;3.77;;
9304;SDS011;4690;52.422;13.486;2023-04-12T01:58:50;4.57;;;3.30;;
9304;SDS011;4690;52.422;13.486;2023-04-12T02:01:19;3.77;;;3.20;;
9304;SDS011;4690;52.422;13.486;2023-04-12T02:03:47;4.80;;;3.47;;
9304;SDS011;4690;52.422;13.486;2023-04-12T02:06:17;3.60;;;3.30;;
9304;SDS011;4690;52.422;13.486;2023-04-12T02:08:47;3.70;;;3.30;;
9304;SDS011;4690;52.422;13.486;2023-04-12T02:11:13;5.30;;;3.50;;
9304;SDS011;4690;52.422;13.486;2023-04-12T02:13:38;4.23;;;3.40;;
9304;SDS011;4690;52.422;13.486;2023-04-12T02:16:04;5.63;;;3.40;;
9304;SDS011;4690;52.422;13.486;2023-04-12T02:18:34;5.77;;;3.77;;
9304;SDS011;4690;52.422;13.486;2023-04-12T02:21:00;5.13;;;3.80;;
9304;SDS011;4690;52.422;13.486;2023-04-12T02:23:26;4.77;;;3.37;;
9304;SDS011;4690;52.422;13.486;2023-04-12T02:25:52;3.63;;;3.33;;
9304;SDS011;4690;52.422;13.486;2023-04-12T02:28:17;6.07;;;4.00;;
9304;SDS011;4690;52.422;13.486;2023-04-12T02:30:43;4.67;;;3.47;;
9304;SDS011;4690;52.422;13.486;2023-04-12T02:33:09;5.53;;;3.60;;
9304;SDS011;4690;52.422;13.486;2023-04-12T02:35:35;6.00;;;3.73;;
9304;SDS011;4690;52.422;13.486;2023-04-12T02:38:01;5.43;;;3.90;;
9304;SDS011;4690;52.422;13.486;2023-04-12T02:40:32;5.10;;;4.17;;
9304;SDS011;4690;52.422;13.486;2023-04-12T02:43:02;5.00;;;3.67;;
9304;SDS011;4690;52.422;13.486;2023-04-12T02:45:28;4.50;;;3.63;;
9304;SDS011;4690;52.422;13.486;2023-04-12T02:47:53;6.17;;;3.60;;
9304;SDS011;4690;52.422;13.486;2023-04-12T02:50:19;5.43;;;3.80;;
9304;SDS011;4690;52.422;13.486;2023-04-12T02:52:45;4.80;;;4.20;;
9304;SDS011;4690;52.422;13.486;2023-04-12T02:55:10;4.70;;;3.70;;
9304;SDS011;4690;52.422;13.486;2023-04-12T02:57:36;4.20;;;3.70;;
9304;SDS011;4690;52.422;13.486;2023-04-12T03:00:03;6.07;;;3.57;;
9304;SDS011;4690;52.422;13.486;2023-04-12T03:02:40;5.07;;;3.63;;
9304;SDS011;4690;52.422;13.486;2023-04-12T03:05:06;4.37;;;3.80;;
9304;SDS011;4690;52.422;13.486;2023-04-12T03:07:33;5.43;;;3.80;;
9304;SDS011;4690;52.422;13.486;2023-04-12T03:10:00;5.83;;;3.90;;
9304;SDS011;4690;52.422;13.486;2023-04-12T03:12:26;5.17;;;3.77;;
9304;SDS011;4690;52.422;13.486;2023-04-12T03:14:52;4.67;;;3.30;;
9304;SDS011;4690;52.422;13.486;2023-04-12T03:17:18;4.27;;;3.90;;
9304;SDS011;4690;52.422;13.486;2023-04-12T03:19:44;4.30;;;3.53;;
9304;SDS011;4690;52.422;13.486;2023-04-12T03:22:10;4.23;;;3.83;;
9304;SDS011;4690;52.422;13.486;2023-04-12T03:24:36;7.87;;;4.00;;
9304;SDS011;4690;52.422;13.486;2023-04-12T03:27:03;5.93;;;3.70;;
9304;SDS011;4690;52.422;13.486;2023-04-12T03:29:30;7.13;;;4.17;;
9304;SDS011;4690;52.422;13.486;2023-04-12T03:31:56;4.90;;;4.00;;
9304;SDS011;4690;52.422;13.486;2023-04-12T03:34:23;6.43;;;4.37;;
9304;SDS011;4690;52.422;13.486;2023-04-12T03:36:52;4.87;;;3.70;;
9304;SDS011;4690;52.422;13.486;2023-04-12T03:39:19;4.60;;;3.67;;
9304;SDS011;4690;52.422;13.486;2023-04-12T03:41:46;5.27;;;4.40;;
9304;SDS011;4690;52.422;13.486;2023-04-12T03:44:11;4.77;;;4.03;;
9304;SDS011;4690;52.422;13.486;2023-04-12T03:46:38;4.40;;;4.00;;
9304;SDS011;4690;52.422;13.486;2023-04-12T03:49:04;6.17;;;4.10;;
9304;SDS011;4690;52.422;13.486;2023-04-12T03:51:30;5.90;;;4.40;;
9304;SDS011;4690;52.422;13.486;2023-04-12T03:53:56;6.63;;;4.30;;
9304;SDS011;4690;52.422;13.486;2023-04-12T03:56:21;5.03;;;4.53;;
9304;SDS011;4690;52.422;13.486;2023-04-12T03:58:47;4.40;;;3.80;;
9304;SDS011;4690;52.422;13.486;2023-04-12T04:01:13;6.30;;;4.20;;
9304;SDS011;4690;52.422;13.486;2023-04-12T04:03:41;4.93;;;4.10;;
9304;SDS011;4690;52.422;13.486;2023-04-12T04:06:09;5.70;;;4.70;;
9304;SDS011;4690;52.422;13.486;2023-04-12T04:08:36;5.10;;;4.40;;
9304;SDS011;4690;52.422;13.486;2023-04-12T04:11:02;5.03;;;4.07;;
9304;SDS011;4690;52.422;13.486;2023-04-12T04:13:27;4.50;;;4.10;;
9304;SDS011;4690;52.422;13.486;2023-04-12T04:16:03;5.83;;;4.20;;
9304;SDS011;4690;52.422;13.486;2023-04-12T04:18:31;7.07;;;4.50;;
9304;SDS011;4690;52.422;13.486;2023-04-12T04:20:58;5.57;;;4.60;;
9304;SDS011;4690;52.422;13.486;2023-04-12T04:23:24;5.67;;;4.90;;
9304;SDS011;4690;52.422;13.486;2023-04-12T04:25:53;6.13;;;4.50;;
9304;SDS011;4690;52.422;13.486;2023-04-12T04:28:19;6.20;;;4.77;;
9304;SDS011;4690;52.422;13.486;2023-04-12T04:30:45;7.73;;;5.77;;
9304;SDS011;4690;52.422;13.486;2023-04-12T04:33:11;7.30;;;5.63;;
9304;SDS011;4690;52.422;13.486;2023-04-12T04:35:40;7.17;;;5.73;;
9304;SDS011;4690;52.422;13.486;2023-04-12T04:38:07;6.27;;;5.00;;
9304;SDS011;4690;52.422;13.486;2023-04-12T04:40:37;6.47;;;4.73;;
9304;SDS011;4690;52.422;13.486;2023-04-12T04:43:03;5.30;;;4.80;;
9304;SDS011;4690;52.422;13.486;2023-04-12T04:45:31;5.93;;;4.80;;
9304;SDS011;4690;52.422;13.486;2023-04-12T04:47:56;6.77;;;5.00;;
9304;SDS011;4690;52.422;13.486;2023-04-12T04:50:23;5.10;;;4.57;;
9304;SDS011;4690;52.422;13.486;2023-04-12T04:52:50;6.13;;;5.30;;
9304;SDS011;4690;52.422;13.486;2023-04-12T04:55:16;7.90;;;5.10;;
9304;SDS011;4690;52.422;13.486;2023-04-12T04:57:44;7.20;;;5.20;;
9304;SDS011;4690;52.422;13.486;2023-04-12T05:00:10;6.67;;;4.77;;
9304;SDS011;4690;52.422;13.486;2023-04-12T05:02:40;8.20;;;4.83;;
9304;SDS011;4690;52.422;13.486;2023-04-12T05:05:08;7.63;;;5.03;;
9304;SDS011;4690;52.422;13.486;2023-04-12T05:07:36;7.17;;;5.50;;
9304;SDS011;4690;52.422;13.486;2023-04-12T05:10:02;6.00;;;5.20;;
9304;SDS011;4690;52.422;13.486;2023-04-12T05:12:29;7.93;;;6.00;;
9304;SDS011;4690;52.422;13.486;2023-04-12T05:14:55;6.23;;;5.00;;
9304;SDS011;4690;52.422;13.486;2023-04-12T05:17:21;8.03;;;6.10;;
9304;SDS011;4690;52.422;13.486;2023-04-12T05:19:47;7.57;;;6.30;;
9304;SDS011;4690;52.422;13.486;2023-04-12T05:22:13;8.10;;;5.73;;
9304;SDS011;4690;52.422;13.486;2023-04-12T05:24:38;6.53;;;5.00;;
9304;SDS011;4690;52.422;13.486;2023-04-12T05:27:04;7.10;;;5.37;;
9304;SDS011;4690;52.422;13.486;2023-04-12T05:29:30;5.40;;;4.60;;
9304;SDS011;4690;52.422;13.486;2023-04-12T05:31:57;5.63;;;5.00;;
9304;SDS011;4690;52.422;13.486;2023-04-12T05:34:23;8.33;;;5.57;;
9304;SDS011;4690;52.422;13.486;2023-04-12T05:36:49;8.50;;;5.70;;
9304;SDS011;4690;52.422;13.486;2023-04-12T05:39:14;5.53;;;4.90;;
9304;SDS011;4690;52.422;13.486;2023-04-12T05:41:40;5.67;;;5.00;;
9304;SDS011;4690;52.422;13.486;2023-04-12T05:44:06;7.47;;;5.10;;
9304;SDS011;4690;52.422;13.486;2023-04-12T05:46:31;6.50;;;4.73;;
9304;SDS011;4690;52.422;13.486;2023-04-12T05:48:57;7.23;;;4.33;;
9304;SDS011;4690;52.422;13.486;2023-04-12T05:51:23;8.03;;;5.00;;
9304;SDS011;4690;52.422;13.486;2023-04-12T05:53:50;6.30;;;4.30;;
9304;SDS011;4690;52.422;13.486;2023-04-12T05:56:15;4.70;;;4.00;;
9304;SDS011;4690;52.422;13.486;2023-04-12T05:58:41;4.07;;;3.67;;
9304;SDS011;4690;52.422;13.486;2023-04-12T06:01:07;4.03;;;3.60;;
9304;SDS011;4690;52.422;13.486;2023-04-12T06:03:33;5.30;;;3.50;;
9304;SDS011;4690;52.422;13.486;2023-04-12T06:05:59;7.13;;;3.73;;
9304;SDS011;4690;52.422;13.486;2023-04-12T06:08:26;7.07;;;3.57;;
9304;SDS011;4690;52.422;13.486;2023-04-12T06:10:53;5.43;;;3.50;;
9304;SDS011;4690;52.422;13.486;2023-04-12T06:13:19;5.00;;;3.70;;
9304;SDS011;4690;52.422;13.486;2023-04-12T06:15:45;5.30;;;3.50;;
9304;SDS011;4690;52.422;13.486;2023-04-12T06:18:11;7.63;;;3.93;;
9304;SDS011;4690;52.422;13.486;2023-04-12T06:20:40;6.80;;;3.63;;
9304;SDS011;4690;52.422;13.486;2023-04-12T06:23:06;7.13;;;4.10;;
9304;SDS011;4690;52.422;13.486;2023-04-12T06:25:32;8.27;;;3.70;;
9304;SDS011;4690;52.422;13.486;2023-04-12T06:27:58;7.17;;;4.30;;
9304;SDS011;4690;52.422;13.486;2023-04-12T06:30:23;4.00;;;3.40;;
9304;SDS011;4690;52.422;13.486;2023-04-12T06:32:49;5.77;;;3.60;;
9304;SDS011;4690;52.422;13.486;2023-04-12T06:35:15;7.03;;;3.63;;
9304;SDS011;4690;52.422;13.486;2023-04-12T06:37:41;7.83;;;3.73;;
9304;SDS011;4690;52.422;13.486;2023-04-12T06:40:07;6.70;;;3.90;;
9304;SDS011;4690;52.422;13.486;2023-04-12T06:42:33;5.93;;;3.63;;
9304;SDS011;4690;52.422;13.486;2023-04-12T06:44:59;7.13;;;3.75;;
9304;SDS011;4690;52.422;13.486;2023-04-12T06:47:25;9.02;;;3.92;;
9304;SDS011;4690;52.422;13.486;2023-04-12T06:49:50;7.22;;;3.90;;
9304;SDS011;4690;52.422;13.486;2023-04-12T06:52:19;5.82;;;4.40;;
9304;SDS011;4690;52.422;13.486;2023-04-12T06:54:50;4.35;;;3.95;;
9304;SDS011;4690;52.422;13.486;2023-04-12T06:57:17;7.72;;;3.80;;
9304;SDS011;4690;52.422;13.486;2023-04-12T06:59:46;5.65;;;4.00;;
9304;SDS011;4690;52.422;13.486;2023-04-12T07:02:11;5.03;;;3.58;;
9304;SDS011;4690;52.422;13.486;2023-04-12T07:04:37;5.57;;;3.50;;
9304;SDS011;4690;52.422;13.486;2023-04-12T07:07:03;5.85;;;3.40;;
9304;SDS011;4690;52.422;13.486;2023-04-12T07:09:29;3.80;;;3.35;;
9304;SDS011;4690;52.422;13.486;2023-04-12T07:11:56;4.22;;;3.00;;
9304;SDS011;4690;52.422;13.486;2023-04-12T07:14:23;4.75;;;3.05;;
9304;SDS011;4690;52.422;13.486;2023-04-12T07:16:49;3.65;;;2.75;;
9304;SDS011;4690;52.422;13.486;2023-04-12T07:19:14;5.80;;;2.92;;
9304;SDS011;4690;52.422;13.486;2023-04-12T07:21:40;3.85;;;2.88;;
9304;SDS011;4690;52.422;13.486;2023-04-12T07:24:06;2.90;;;2.60;;
9304;SDS011;4690;52.422;13.486;2023-04-12T07:26:32;4.20;;;3.05;;
9304;SDS011;4690;52.422;13.486;2023-04-12T07:28:58;4.00;;;2.97;;
9304;SDS011;4690;52.422;13.486;2023-04-12T07:31:23;2.90;;;2.58;;
9304;SDS011;4690;52.422;13.486;2023-04-12T07:33:49;3.28;;;2.78;;
9304;SDS011;4690;52.422;13.486;2023-04-12T07:36:15;3.63;;;2.85;;
9304;SDS011;4690;52.422;13.486;2023-04-12T07:38:45;3.47;;;2.40;;
9304;SDS011;4690;52.422;13.486;2023-04-12T07:41:11;5.82;;;2.92;;
9304;SDS011;4690;52.422;13.486;2023-04-12T07:43:36;3.20;;;2.33;;
9304;SDS011;4690;52.422;13.486;2023-04-12T07:46:02;4.07;;;2.65;;
9304;SDS011;4690;52.422;13.486;2023-04-12T07:48:32;3.97;;;2.30;;
9304;SDS011;4690;52.422;13.486;2023-04-12T07:50:58;2.53;;;2.15;;
9304;SDS011;4690;52.422;13.486;2023-04-12T07:53:26;2.63;;;2.00;;
9304;SDS011;4690;52.422;13.486;2023-04-12T07:55:53;4.88;;;2.25;;
9304;SDS011;4690;52.422;13.486;2023-04-12T07:58:20;4.13;;;2.13;;
9304;SDS011;4690;52.422;13.486;2023-04-12T08:00:48;2.83;;;1.90;;
9304;SDS011;4690;52.422;13.486;2023-04-12T08:03:14;7.70;;;2.53;;
9304;SDS011;4690;52.422;13.486;2023-04-12T08:05:42;4.53;;;2.30;;
9304;SDS011;4690;52.422;13.486;2023-04-12T08:08:09;5.30;;;2.15;;
9304;SDS011;4690;52.422;13.486;2023-04-12T08:10:36;3.72;;;2.30;;
9304;SDS011;4690;52.422;13.486;2023-04-12T08:13:03;5.13;;;2.10;;
9304;SDS011;4690;52.422;13.486;2023-04-12T08:15:31;5.13;;;1.92;;
9304;SDS011;4690;52.422;13.486;2023-04-12T08:17:57;4.13;;;1.90;;
9304;SDS011;4690;52.422;13.486;2023-04-12T08:20:23;3.35;;;1.85;;
9304;SDS011;4690;52.422;13.486;2023-04-12T08:22:48;2.97;;;1.70;;
9304;SDS011;4690;52.422;13.486;2023-04-12T08:25:16;4.65;;;1.90;;
9304;SDS011;4690;52.422;13.486;2023-04-12T08:27:42;2.40;;;1.70;;
9304;SDS011;4690;52.422;13.486;2023-04-12T08:30:10;3.45;;;1.85;;
9304;SDS011;4690;52.422;13.486;2023-04-12T08:32:37;4.72;;;2.08;;
9304;SDS011;4690;52.422;13.486;2023-04-12T08:35:05;2.70;;;1.83;;
9304;SDS011;4690;52.422;13.486;2023-04-12T08:37:32;3.80;;;2.10;;
9304;SDS011;4690;52.422;13.486;2023-04-12T08:39:58;2.90;;;1.70;;
9304;SDS011;4690;52.422;13.486;2023-04-12T08:42:30;4.43;;;2.00;;
9304;SDS011;4690;52.422;13.486;2023-04-12T08:44:58;3.38;;;1.85;;
9304;SDS011;4690;52.422;13.486;2023-04-12T08:47:36;3.90;;;1.70;;
9304;SDS011;4690;52.422;13.486;2023-04-12T08:50:09;2.78;;;1.60;;
9304;SDS011;4690;52.422;13.486;2023-04-12T08:52:41;5.03;;;1.50;;
9304;SDS011;4690;52.422;13.486;2023-04-12T08:55:07;3.22;;;1.80;;
9304;SDS011;4690;52.422;13.486;2023-04-12T08:57:35;4.10;;;1.90;;
9304;SDS011;4690;52.422;13.486;2023-04-12T09:00:04;4.18;;;1.80;;
9304;SDS011;4690;52.422;13.486;2023-04-12T09:02:36;2.63;;;1.67;;
9304;SDS011;4690;52.422;13.486;2023-04-12T09:05:02;4.47;;;1.90;;
9304;SDS011;4690;52.422;13.486;2023-04-12T09:07:30;2.63;;;1.90;;
9304;SDS011;4690;52.422;13.486;2023-04-12T09:09:56;3.63;;;2.05;;
9304;SDS011;4690;52.422;13.486;2023-04-12T09:12:22;4.20;;;2.00;;
9304;SDS011;4690;52.422;13.486;2023-04-12T09:17:32;3.63;;;2.13;;
9304;SDS011;4690;52.422;13.486;2023-04-12T09:20:01;3.80;;;2.00;;
9304;SDS011;4690;52.422;13.486;2023-04-12T09:22:32;5.03;;;2.00;;
9304;SDS011;4690;52.422;13.486;2023-04-12T09:25:04;2.97;;;1.85;;
9304;SDS011;4690;52.422;13.486;2023-04-12T09:27:46;3.40;;;1.65;;
9304;SDS011;4690;52.422;13.486;2023-04-12T09:30:18;3.53;;;2.10;;
9304;SDS011;4690;52.422;13.486;2023-04-12T09:32:45;4.15;;;1.95;;
9304;SDS011;4690;52.422;13.486;2023-04-12T09:35:14;3.97;;;1.90;;
9304;SDS011;4690;52.422;13.486;2023-04-12T09:37:40;7.70;;;2.00;;
9304;SDS011;4690;52.422;13.486;2023-04-12T09:40:07;5.53;;;1.90;;
9304;SDS011;4690;52.422;13.486;2023-04-12T09:42:35;4.47;;;2.00;;
9304;SDS011;4690;52.422;13.486;2023-04-12T09:45:23;5.90;;;2.08;;
9304;SDS011;4690;52.422;13.486;2023-04-12T09:47:50;2.95;;;1.92;;
9304;SDS011;4690;52.422;13.486;2023-04-12T09:50:20;3.45;;;1.90;;
9304;SDS011;4690;52.422;13.486;2023-04-12T09:52:53;3.67;;;1.90;;
9304;SDS011;4690;52.422;13.486;2023-04-12T09:55:21;3.60;;;1.73;;
9304;SDS011;4690;52.422;13.486;2023-04-12T09:57:49;2.72;;;1.80;;
9304;SDS011;4690;52.422;13.486;2023-04-12T10:00:17;4.57;;;2.00;;
9304;SDS011;4690;52.422;13.486;2023-04-12T10:02:47;3.45;;;2.03;;
9304;SDS011;4690;52.422;13.486;2023-04-12T10:05:16;3.55;;;2.05;;
9304;SDS011;4690;52.422;13.486;2023-04-12T10:07:45;3.95;;;2.20;;
9304;SDS011;4690;52.422;13.486;2023-04-12T10:10:15;6.78;;;1.90;;
9304;SDS011;4690;52.422;13.486;2023-04-12T10:12:43;4.03;;;1.90;;
9304;SDS011;4690;52.422;13.486;2023-04-12T10:15:12;5.30;;;1.83;;
9304;SDS011;4690;52.422;13.486;2023-04-12T10:17:42;5.72;;;2.15;;
9304;SDS011;4690;52.422;13.486;2023-04-12T10:20:10;6.03;;;2.45;;
9304;SDS011;4690;52.422;13.486;2023-04-12T10:22:41;2.70;;;1.73;;
9304;SDS011;4690;52.422;13.486;2023-04-12T10:25:13;5.18;;;2.28;;
9304;SDS011;4690;52.422;13.486;2023-04-12T10:27:44;3.70;;;2.28;;
9304;SDS011;4690;52.422;13.486;2023-04-12T10:33:11;5.45;;;2.20;;
9304;SDS011;4690;52.422;13.486;2023-04-12T10:38:26;4.60;;;2.40;;
9304;SDS011;4690;52.422;13.486;2023-04-12T10:41:06;5.22;;;2.30;;
9304;SDS011;4690;52.422;13.486;2023-04-12T10:43:36;3.28;;;1.80;;
9304;SDS011;4690;52.422;13.486;2023-04-12T10:46:02;4.57;;;2.08;;
9304;SDS011;4690;52.422;13.486;2023-04-12T10:48:34;4.45;;;2.25;;
9304;SDS011;4690;52.422;13.486;2023-04-12T10:54:37;4.25;;;1.95;;
9304;SDS011;4690;52.422;13.486;2023-04-12T10:56:41;4.72;;;2.00;;
9304;SDS011;4690;52.422;13.486;2023-04-12T10:59:12;4.47;;;2.00;;
9304;SDS011;4690;52.422;13.486;2023-04-12T11:01:39;3.78;;;2.10;;
9304;SDS011;4690;52.422;13.486;2023-04-12T11:04:10;5.18;;;2.28;;
9304;SDS011;4690;52.422;13.486;2023-04-12T11:06:49;5.93;;;2.30;;
9304;SDS011;4690;52.422;13.486;2023-04-12T11:11:57;6.80;;;2.10;;
9304;SDS011;4690;52.422;13.486;2023-04-12T11:14:35;3.25;;;1.83;;
9304;SDS011;4690;52.422;13.486;2023-04-12T11:19:35;3.50;;;2.13;;
9304;SDS011;4690;52.422;13.486;2023-04-12T11:22:04;5.90;;;1.80;;
9304;SDS011;4690;52.422;13.486;2023-04-12T11:24:34;4.22;;;2.10;;
9304;SDS011;4690;52.422;13.486;2023-04-12T11:27:07;6.05;;;2.20;;
9304;SDS011;4690;52.422;13.486;2023-04-12T11:29:34;3.13;;;1.80;;
9304;SDS011;4690;52.422;13.486;2023-04-12T11:32:04;4.05;;;2.05;;
9304;SDS011;4690;52.422;13.486;2023-04-12T11:34:34;3.33;;;1.83;;
9304;SDS011;4690;52.422;13.486;2023-04-12T11:37:01;4.65;;;1.80;;
9304;SDS011;4690;52.422;13.486;2023-04-12T11:39:30;5.78;;;2.05;;
9304;SDS011;4690;52.422;13.486;2023-04-12T11:41:56;3.15;;;1.70;;
9304;SDS011;4690;52.422;13.486;2023-04-12T11:44:23;5.15;;;2.03;;
9304;SDS011;4690;52.422;13.486;2023-04-12T11:46:49;3.50;;;1.90;;
9304;SDS011;4690;52.422;13.486;2023-04-12T11:49:15;4.63;;;2.58;;
9304;SDS011;4690;52.422;13.486;2023-04-12T11:51:44;4.03;;;1.77;;
9304;SDS011;4690;52.422;13.486;2023-04-12T11:54:11;2.05;;;1.70;;
9304;SDS011;4690;52.422;13.486;2023-04-12T11:56:38;4.00;;;1.95;;
9304;SDS011;4690;52.422;13.486;2023-04-12T11:59:05;6.45;;;1.88;;
9304;SDS011;4690;52.422;13.486;2023-04-12T12:01:35;4.72;;;2.13;;
9304;SDS011;4690;52.422;13.486;2023-04-12T12:04:02;4.25;;;1.90;;
9304;SDS011;4690;52.422;13.486;2023-04-12T12:06:29;4.60;;;2.05;;
9304;SDS011;4690;52.422;13.486;2023-04-12T12:08:55;5.13;;;1.98;;
9304;SDS011;4690;52.422;13.486;2023-04-12T12:11:22;3.95;;;2.00;;
9304;SDS011;4690;52.422;13.486;2023-04-12T12:13:54;6.45;;;2.13;;
9304;SDS011;4690;52.422;13.486;2023-04-12T12:16:25;3.85;;;2.00;;
9304;SDS011;4690;52.422;13.486;2023-04-12T12:18:53;4.18;;;1.98;;
9304;SDS011;4690;52.422;13.486;2023-04-12T12:21:20;3.00;;;1.80;;
9304;SDS011;4690;52.422;13.486;2023-04-12T12:23:47;3.55;;;1.90;;
9304;SDS011;4690;52.422;13.486;2023-04-12T12:26:26;4.05;;;2.05;;
9304;SDS011;4690;52.422;13.486;2023-04-12T12:28:53;3.95;;;1.90;;
9304;SDS011;4690;52.422;13.486;2023-04-12T12:31:21;6.05;;;1.80;;
9304;SDS011;4690;52.422;13.486;2023-04-12T12:33:57;2.50;;;1.90;;
9304;SDS011;4690;52.422;13.486;2023-04-12T12:36:31;4.43;;;2.10;;
9304;SDS011;4690;52.422;13.486;2023-04-12T12:41:35;4.50;;;2.30;;
9304;SDS011;4690;52.422;13.486;2023-04-12T12:44:04;5.70;;;2.25;;
9304;SDS011;4690;52.422;13.486;2023-04-12T12:46:31;8.52;;;2.10;;
9304;SDS011;4690;52.422;13.486;2023-04-12T12:48:57;4.18;;;2.15;;
9304;SDS011;4690;52.422;13.486;2023-04-12T12:51:23;3.72;;;1.77;;
9304;SDS011;4690;52.422;13.486;2023-04-12T12:53:50;4.20;;;2.10;;
9304;SDS011;4690;52.422;13.486;2023-04-12T12:56:16;3.67;;;1.90;;
9304;SDS011;4690;52.422;13.486;2023-04-12T12:58:42;3.92;;;2.08;;
9304;SDS011;4690;52.422;13.486;2023-04-12T13:01:07;5.05;;;2.08;;
9304;SDS011;4690;52.422;13.486;2023-04-12T13:03:33;4.43;;;2.08;;
9304;SDS011;4690;52.422;13.486;2023-04-12T13:05:59;6.55;;;2.00;;
9304;SDS011;4690;52.422;13.486;2023-04-12T13:08:25;4.60;;;2.08;;
9304;SDS011;4690;52.422;13.486;2023-04-12T13:10:52;3.75;;;1.75;;
9304;SDS011;4690;52.422;13.486;2023-04-12T13:13:19;4.78;;;2.15;;
9304;SDS011;4690;52.422;13.486;2023-04-12T13:15:45;4.07;;;1.90;;
9304;SDS011;4690;52.422;13.486;2023-04-12T13:18:11;3.20;;;1.90;;
9304;SDS011;4690;52.422;13.486;2023-04-12T13:20:41;7.00;;;1.90;;
9304;SDS011;4690;52.422;13.486;2023-04-12T13:23:07;4.15;;;1.85;;
9304;SDS011;4690;52.422;13.486;2023-04-12T13:25:33;4.50;;;1.90;;
9304;SDS011;4690;52.422;13.486;2023-04-12T13:27:59;4.25;;;2.28;;
9304;SDS011;4690;52.422;13.486;2023-04-12T13:30:25;7.18;;;1.98;;
9304;SDS011;4690;52.422;13.486;2023-04-12T13:32:52;2.90;;;1.90;;
9304;SDS011;4690;52.422;13.486;2023-04-12T13:35:18;5.00;;;1.70;;
9304;SDS011;4690;52.422;13.486;2023-04-12T13:37:43;4.45;;;2.08;;
9304;SDS011;4690;52.422;13.486;2023-04-12T13:40:09;2.60;;;1.88;;
9304;SDS011;4690;52.422;13.486;2023-04-12T13:42:35;4.05;;;2.13;;
9304;SDS011;4690;52.422;13.486;2023-04-12T13:45:01;5.32;;;2.05;;
9304;SDS011;4690;52.422;13.486;2023-04-12T13:47:28;4.68;;;1.80;;
9304;SDS011;4690;52.422;13.486;2023-04-12T13:49:55;3.63;;;2.10;;
9304;SDS011;4690;52.422;13.486;2023-04-12T13:52:20;3.33;;;1.98;;
9304;SDS011;4690;52.422;13.486;2023-04-12T13:54:46;3.75;;;2.42;;
9304;SDS011;4690;52.422;13.486;2023-04-12T13:57:12;3.15;;;2.00;;
9304;SDS011;4690;52.422;13.486;2023-04-12T13:59:38;6.25;;;2.10;;
9304;SDS011;4690;52.422;13.486;2023-04-12T14:02:04;5.50;;;2.05;;
9304;SDS011;4690;52.422;13.486;2023-04-12T14:04:30;3.30;;;2.33;;
9304;SDS011;4690;52.422;13.486;2023-04-12T14:06:56;4.90;;;2.20;;
9304;SDS011;4690;52.422;13.486;2023-04-12T14:11:54;4.00;;;1.85;;
9304;SDS011;4690;52.422;13.486;2023-04-12T14:14:25;3.78;;;2.00;;
9304;SDS011;4690;52.422;13.486;2023-04-12T14:16:52;3.63;;;1.90;;
9304;SDS011;4690;52.422;13.486;2023-04-12T14:19:22;4.82;;;1.80;;
9304;SDS011;4690;52.422;13.486;2023-04-12T14:21:48;3.10;;;1.77;;
9304;SDS011;4690;52.422;13.486;2023-04-12T14:24:14;3.03;;;2.25;;
9304;SDS011;4690;52.422;13.486;2023-04-12T14:26:41;4.57;;;2.08;;
9304;SDS011;4690;52.422;13.486;2023-04-12T14:29:07;3.65;;;2.35;;
9304;SDS011;4690;52.422;13.486;2023-04-12T14:31:33;3.65;;;1.92;;
9304;SDS011;4690;52.422;13.486;2023-04-12T14:34:00;3.70;;;1.90;;
9304;SDS011;4690;52.422;13.486;2023-04-12T14:36:27;5.25;;;1.83;;
9304;SDS011;4690;52.422;13.486;2023-04-12T14:38:53;6.97;;;2.10;;
9304;SDS011;4690;52.422;13.486;2023-04-12T14:41:19;3.97;;;2.40;;
9304;SDS011;4690;52.422;13.486;2023-04-12T14:43:45;2.60;;;1.83;;
9304;SDS011;4690;52.422;13.486;2023-04-12T14:46:11;3.70;;;2.08;;
9304;SDS011;4690;52.422;13.486;2023-04-12T14:48:38;6.37;;;2.40;;
9304;SDS011;4690;52.422;13.486;2023-04-12T14:51:05;4.60;;;2.28;;
9304;SDS011;4690;52.422;13.486;2023-04-12T14:53:31;3.60;;;1.80;;
9304;SDS011;4690;52.422;13.486;2023-04-12T14:55:57;3.47;;;1.97;;
9304;SDS011;4690;52.422;13.486;2023-04-12T14:58:26;4.83;;;2.23;;
9304;SDS011;4690;52.422;13.486;2023-04-12T15:00:56;4.43;;;2.13;;
9304;SDS011;4690;52.422;13.486;2023-04-12T15:03:24;4.10;;;1.83;;
9304;SDS011;4690;52.422;13.486;2023-04-12T15:05:54;3.70;;;2.00;;
9304;SDS011;4690;52.422;13.486;2023-04-12T15:08:21;4.53;;;2.60;;
9304;SDS011;4690;52.422;13.486;2023-04-12T15:10:47;3.70;;;2.80;;
9304;SDS011;4690;52.422;13.486;2023-04-12T15:13:13;5.53;;;4.90;;
9304;SDS011;4690;52.422;13.486;2023-04-12T15:15:38;5.83;;;2.70;;
9304;SDS011;4690;52.422;13.486;2023-04-12T15:18:05;6.17;;;2.67;;
9304;SDS011;4690;52.422;13.486;2023-04-12T15:20:31;4.13;;;2.20;;
9304;SDS011;4690;52.422;13.486;2023-04-12T15:22:57;5.87;;;2.97;;
9304;SDS011;4690;52.422;13.486;2023-04-12T15:25:22;5.37;;;3.20;;
9304;SDS011;4690;52.422;13.486;2023-04-12T15:27:48;3.60;;;2.57;;
9304;SDS011;4690;52.422;13.486;2023-04-12T15:30:14;4.30;;;2.73;;
9304;SDS011;4690;52.422;13.486;2023-04-12T15:32:41;5.10;;;3.40;;
9304;SDS011;4690;52.422;13.486;2023-04-12T15:35:07;6.50;;;4.70;;
9304;SDS011;4690;52.422;13.486;2023-04-12T15:37:34;4.77;;;3.10;;
9304;SDS011;4690;52.422;13.486;2023-04-12T15:40:00;3.83;;;2.50;;
9304;SDS011;4690;52.422;13.486;2023-04-12T15:42:39;6.10;;;2.90;;
9304;SDS011;4690;52.422;13.486;2023-04-12T15:45:07;5.57;;;2.70;;